createdAt,value
2022-11-29T00:01:24.863Z,13.57
2022-11-29T00:03:52.023Z,14.13
2022-11-29T00:06:21.045Z,13.73
2022-11-29T00:08:48.053Z,13.43
2022-11-29T00:11:35.825Z,13.00
2022-11-29T00:14:02.826Z,13.77
2022-11-29T00:16:29.712Z,13.68
2022-11-29T00:18:56.604Z,13.75
2022-11-29T00:21:23.384Z,13.23
2022-11-29T00:23:50.162Z,13.67
2022-11-29T00:26:17.000Z,13.00
2022-11-29T00:28:43.782Z,13.82
2022-11-29T00:31:17.633Z,13.52
2022-11-29T00:33:44.665Z,12.95
2022-11-29T00:36:11.728Z,13.03
2022-11-29T00:38:38.580Z,12.77
2022-11-29T00:41:05.783Z,14.00
2022-11-29T00:43:32.606Z,13.48
2022-11-29T00:45:59.447Z,13.32
2022-11-29T00:48:26.263Z,12.77
2022-11-29T00:50:53.083Z,12.93
2022-11-29T00:53:20.106Z,13.52
2022-11-29T00:55:50.452Z,13.55
2022-11-29T00:58:17.395Z,13.63
2022-11-29T01:00:44.242Z,12.17
2022-11-29T01:03:11.072Z,13.48
2022-11-29T01:05:37.904Z,13.68
2022-11-29T01:08:04.925Z,12.63
2022-11-29T01:10:31.705Z,12.55
2022-11-29T01:12:58.504Z,13.40
2022-11-29T01:15:25.387Z,13.93
2022-11-29T01:17:53.523Z,13.20
2022-11-29T01:20:20.451Z,13.02
2022-11-29T01:22:47.259Z,12.35
2022-11-29T01:25:14.123Z,12.27
2022-11-29T01:27:41.028Z,12.77
2022-11-29T01:30:08.664Z,13.35
2022-11-29T01:32:36.069Z,12.68
2022-11-29T01:35:03.452Z,13.13
2022-11-29T01:37:30.247Z,12.80
2022-11-29T01:39:57.043Z,12.23
2022-11-29T01:42:23.900Z,13.27
2022-11-29T01:44:50.612Z,13.10
2022-11-29T01:47:18.166Z,12.55
2022-11-29T01:49:46.004Z,12.00
2022-11-29T01:52:32.373Z,11.82
2022-11-29T01:55:01.065Z,12.32
2022-11-29T01:57:28.084Z,11.23
2022-11-29T01:59:58.350Z,12.48
2022-11-29T02:02:42.551Z,12.17
2022-11-29T02:05:09.625Z,11.18
2022-11-29T02:07:36.565Z,12.35
2022-11-29T02:10:03.656Z,12.10
2022-11-29T02:12:35.320Z,12.32
2022-11-29T02:15:11.186Z,12.27
2022-11-29T02:18:02.767Z,11.45
2022-11-29T02:20:51.202Z,12.82
2022-11-29T02:23:30.189Z,11.82
2022-11-29T02:25:59.481Z,12.70
2022-11-29T02:28:44.658Z,11.37
2022-11-29T02:31:43.702Z,12.63
2022-11-29T02:34:39.989Z,12.45
2022-11-29T02:37:48.727Z,12.95
2022-11-29T02:40:33.992Z,13.02
2022-11-29T02:43:06.559Z,12.73
2022-11-29T02:45:55.077Z,12.77
2022-11-29T02:48:59.301Z,12.45
2022-11-29T02:51:48.503Z,11.70
2022-11-29T02:54:39.345Z,12.73
2022-11-29T02:57:14.824Z,12.33
2022-11-29T02:59:47.457Z,12.38
2022-11-29T03:02:21.711Z,13.38
2022-11-29T03:05:13.968Z,12.88
2022-11-29T03:07:56.095Z,13.25
2022-11-29T03:10:49.749Z,11.77
2022-11-29T03:13:58.773Z,12.52
2022-11-29T03:16:56.430Z,12.02
2022-11-29T03:19:47.044Z,11.88
2022-11-29T03:22:51.163Z,12.00
2022-11-29T03:25:21.174Z,10.80
2022-11-29T03:28:06.611Z,11.45
2022-11-29T03:30:34.756Z,10.57
2022-11-29T03:33:10.062Z,10.82
2022-11-29T03:36:09.624Z,11.70
2022-11-29T03:38:41.606Z,10.67
2022-11-29T03:41:13.383Z,10.75
2022-11-29T03:43:57.171Z,11.25
2022-11-29T03:47:02.474Z,9.75
2022-11-29T03:49:31.524Z,9.57
2022-11-29T03:52:18.971Z,10.27
2022-11-29T03:55:23.049Z,10.45
2022-11-29T03:58:02.215Z,9.93
2022-11-29T04:00:43.249Z,10.80
2022-11-29T04:03:41.042Z,10.75
2022-11-29T04:06:14.664Z,9.40
2022-11-29T04:09:08.769Z,9.60
2022-11-29T04:11:35.462Z,10.05
2022-11-29T04:14:14.372Z,10.65
2022-11-29T04:17:02.804Z,10.40
2022-11-29T04:19:46.659Z,9.40
2022-11-29T04:22:50.842Z,9.60
2022-11-29T04:25:39.228Z,10.02
2022-11-29T04:28:09.184Z,11.00
2022-11-29T04:30:43.521Z,9.98
2022-11-29T04:33:17.423Z,9.37
2022-11-29T04:36:13.012Z,10.70
2022-11-29T04:39:17.155Z,10.35
2022-11-29T04:41:52.885Z,9.82
2022-11-29T04:44:27.685Z,11.20
2022-11-29T04:47:33.089Z,11.13
2022-11-29T04:50:20.955Z,9.50
2022-11-29T04:53:09.484Z,10.30
2022-11-29T04:55:57.689Z,9.77
2022-11-29T04:58:33.140Z,10.45
2022-11-29T05:01:18.036Z,10.27
2022-11-29T05:04:03.383Z,10.55
2022-11-29T05:06:51.887Z,9.70
2022-11-29T05:09:56.647Z,10.48
2022-11-29T05:13:02.445Z,9.93
2022-11-29T05:15:53.934Z,9.97
2022-11-29T05:18:42.806Z,9.95
2022-11-29T05:21:11.426Z,10.73
2022-11-29T05:24:15.460Z,11.20
2022-11-29T05:26:49.529Z,11.50
2022-11-29T05:29:26.410Z,11.33
2022-11-29T05:32:19.651Z,10.35
2022-11-29T05:35:08.941Z,10.50
2022-11-29T05:38:15.102Z,11.07
2022-11-29T05:41:03.727Z,10.43
2022-11-29T05:44:02.188Z,11.17
2022-11-29T05:47:01.102Z,10.30
2022-11-29T05:49:41.463Z,10.40
2022-11-29T05:52:32.127Z,11.43
2022-11-29T05:55:19.929Z,10.93
2022-11-29T05:58:43.579Z,10.77
2022-11-29T06:01:21.424Z,10.30
2022-11-29T06:04:13.223Z,11.45
2022-11-29T06:06:52.502Z,11.13
2022-11-29T06:09:28.694Z,11.48
2022-11-29T06:11:57.763Z,11.23
2022-11-29T06:14:36.188Z,11.02
2022-11-29T06:17:34.335Z,11.77
2022-11-29T06:20:23.532Z,11.57
2022-11-29T06:22:50.566Z,11.77
2022-11-29T06:25:31.726Z,10.97
2022-11-29T06:27:59.166Z,11.82
2022-11-29T06:30:27.885Z,11.80
2022-11-29T06:33:01.306Z,11.85
2022-11-29T06:35:53.067Z,11.80
2022-11-29T06:38:27.865Z,10.73
2022-11-29T06:41:01.386Z,11.30
2022-11-29T06:43:29.063Z,11.60
2022-11-29T06:46:14.511Z,11.23
2022-11-29T06:48:49.848Z,12.15
2022-11-29T06:51:18.615Z,11.43
2022-11-29T06:54:04.635Z,11.75
2022-11-29T06:56:43.517Z,11.82
2022-11-29T06:59:41.358Z,12.02
2022-11-29T07:02:45.278Z,11.90
2022-11-29T07:05:26.007Z,11.40
2022-11-29T07:07:54.605Z,11.93
2022-11-29T07:10:21.943Z,11.75
2022-11-29T07:12:49.378Z,12.02
2022-11-29T07:15:18.410Z,12.38
2022-11-29T07:18:09.695Z,12.40
2022-11-29T07:20:55.196Z,11.32
2022-11-29T07:23:45.776Z,13.23
2022-11-29T07:26:27.158Z,12.60
2022-11-29T07:29:17.804Z,12.07
2022-11-29T07:31:47.549Z,12.33
2022-11-29T07:34:25.572Z,12.13
2022-11-29T07:36:58.618Z,12.80
2022-11-29T07:39:40.937Z,12.60
2022-11-29T07:42:20.196Z,12.30
2022-11-29T07:44:53.176Z,12.47
2022-11-29T07:47:19.934Z,13.18
2022-11-29T07:49:46.742Z,13.32
2022-11-29T07:52:13.986Z,12.32
2022-11-29T07:54:40.851Z,13.52
2022-11-29T07:57:07.649Z,13.37
2022-11-29T07:59:34.426Z,12.68
2022-11-29T08:02:01.270Z,13.43
2022-11-29T08:04:28.214Z,13.68
2022-11-29T08:06:54.976Z,12.68
2022-11-29T08:09:21.707Z,13.10
2022-11-29T08:11:48.905Z,13.35
2022-11-29T08:14:15.687Z,12.95
2022-11-29T08:16:42.459Z,12.73
2022-11-29T08:19:09.273Z,14.20
2022-11-29T08:21:36.021Z,12.90
2022-11-29T08:24:02.965Z,13.02
2022-11-29T08:26:31.775Z,13.02
2022-11-29T08:28:58.844Z,12.52
2022-11-29T08:31:25.677Z,14.73
2022-11-29T08:33:52.510Z,13.20
2022-11-29T08:36:19.978Z,13.63
2022-11-29T08:38:47.079Z,14.65
2022-11-29T08:41:15.132Z,13.38
2022-11-29T08:43:41.907Z,13.43
2022-11-29T08:46:11.462Z,13.63
2022-11-29T08:48:42.099Z,12.93
2022-11-29T08:51:09.020Z,14.18
2022-11-29T08:53:46.460Z,14.18
2022-11-29T08:59:05.677Z,14.17
2022-11-29T09:01:32.630Z,13.55
2022-11-29T09:03:59.555Z,14.00
2022-11-29T09:06:27.596Z,14.15
2022-11-29T09:08:56.380Z,13.98
2022-11-29T09:11:24.506Z,14.03
2022-11-29T09:13:53.282Z,14.20
2022-11-29T09:16:21.716Z,14.60
2022-11-29T09:18:56.067Z,13.57
2022-11-29T09:21:24.664Z,13.73
2022-11-29T09:23:58.101Z,14.23
2022-11-29T09:26:29.463Z,13.48
2022-11-29T09:28:58.002Z,15.18
2022-11-29T09:31:24.912Z,14.93
2022-11-29T09:33:51.986Z,14.18
2022-11-29T09:36:23.718Z,14.80
2022-11-29T09:38:53.548Z,14.25
2022-11-29T09:41:58.079Z,15.13
2022-11-29T09:44:45.696Z,14.15
2022-11-29T09:47:36.887Z,14.13
2022-11-29T09:50:36.747Z,13.93
2022-11-29T09:53:12.591Z,13.77
2022-11-29T09:55:57.726Z,14.52
2022-11-29T09:58:29.328Z,15.23
2022-11-29T10:01:08.105Z,14.82
2022-11-29T10:03:39.420Z,15.33
2022-11-29T10:06:27.923Z,15.52
2022-11-29T10:09:08.281Z,14.45
2022-11-29T10:12:10.605Z,14.05
2022-11-29T10:15:17.976Z,14.27
2022-11-29T10:17:45.481Z,14.07
2022-11-29T10:20:20.047Z,15.23
2022-11-29T10:23:05.661Z,15.45
2022-11-29T10:25:36.340Z,14.57
2022-11-29T10:28:04.438Z,15.13
2022-11-29T10:30:33.122Z,14.53
2022-11-29T10:33:00.414Z,15.98
2022-11-29T10:35:27.438Z,16.13
2022-11-29T10:38:22.740Z,15.55
2022-11-29T10:40:46.175Z,15.60
2022-11-29T10:43:13.031Z,15.47
2022-11-29T10:45:50.994Z,16.42
2022-11-29T10:48:36.827Z,15.93
2022-11-29T10:51:03.964Z,15.13
2022-11-29T10:53:37.164Z,15.95
2022-11-29T10:56:31.231Z,15.63
2022-11-29T10:59:09.445Z,14.75
2022-11-29T11:01:38.507Z,16.35
2022-11-29T11:04:07.489Z,15.05
2022-11-29T11:06:56.264Z,16.33
2022-11-29T11:09:32.740Z,16.43
2022-11-29T11:12:01.831Z,15.45
2022-11-29T11:14:30.963Z,15.57
2022-11-29T11:17:15.297Z,15.43
2022-11-29T11:19:42.177Z,16.48
2022-11-29T11:22:18.794Z,14.53
2022-11-29T11:24:45.814Z,15.38
2022-11-29T11:27:12.772Z,15.10
2022-11-29T11:29:43.919Z,15.68
2022-11-29T11:32:18.207Z,14.77
2022-11-29T11:34:53.020Z,15.40
2022-11-29T11:37:23.016Z,15.43
2022-11-29T11:39:51.662Z,15.25
2022-11-29T11:42:39.023Z,15.27
2022-11-29T11:45:35.469Z,15.60
2022-11-29T11:48:04.941Z,14.33
2022-11-29T11:50:34.383Z,15.07
2022-11-29T11:53:23.120Z,15.73
2022-11-29T11:55:58.889Z,14.80
2022-11-29T11:58:45.879Z,15.93
2022-11-29T12:01:12.637Z,14.57
2022-11-29T12:04:03.743Z,15.48
2022-11-29T12:06:52.731Z,14.80
2022-11-29T12:09:32.858Z,15.52
2022-11-29T12:12:21.271Z,14.57
2022-11-29T12:14:56.804Z,14.33
2022-11-29T12:17:38.687Z,14.30
2022-11-29T12:20:24.323Z,16.30
2022-11-29T12:22:54.146Z,15.05
2022-11-29T12:25:30.166Z,14.95
2022-11-29T12:27:57.029Z,15.30
2022-11-29T12:30:23.843Z,15.15
2022-11-29T12:32:55.160Z,14.75
2022-11-29T12:35:51.286Z,15.65
2022-11-29T12:38:46.124Z,14.68
2022-11-29T12:41:18.809Z,14.90
2022-11-29T12:44:07.871Z,14.75
2022-11-29T12:46:34.834Z,15.20
2022-11-29T12:49:16.800Z,15.05
2022-11-29T12:52:05.599Z,16.13
2022-11-29T12:54:32.345Z,15.37
2022-11-29T12:57:11.369Z,14.63
2022-11-29T12:59:59.188Z,15.43
2022-11-29T13:02:31.371Z,14.98
2022-11-29T13:05:14.219Z,16.40
2022-11-29T13:07:53.361Z,15.20
2022-11-29T13:10:41.629Z,15.50
2022-11-29T13:13:39.179Z,15.60
2022-11-29T13:16:29.269Z,15.63
2022-11-29T13:19:05.961Z,15.13
2022-11-29T13:21:55.942Z,15.10
2022-11-29T13:25:00.003Z,15.23
2022-11-29T13:27:46.170Z,16.20
2022-11-29T13:30:14.422Z,16.65
2022-11-29T13:32:47.866Z,16.67
2022-11-29T13:35:54.888Z,16.03
2022-11-29T13:38:41.167Z,15.95
2022-11-29T13:41:31.405Z,17.42
2022-11-29T13:44:18.786Z,16.98
2022-11-29T13:47:07.541Z,18.25
2022-11-29T13:49:57.400Z,17.23
2022-11-29T13:52:45.884Z,16.98
2022-11-29T13:55:12.673Z,17.88
2022-11-29T14:00:45.224Z,18.58
2022-11-29T14:03:26.165Z,16.83
2022-11-29T14:06:09.980Z,18.15
2022-11-29T14:09:02.499Z,18.02
2022-11-29T14:11:32.253Z,18.27
2022-11-29T14:14:28.947Z,19.17
2022-11-29T14:17:06.201Z,17.73
2022-11-29T14:19:36.941Z,17.85
2022-11-29T14:22:15.799Z,17.55
2022-11-29T14:24:42.952Z,16.75
2022-11-29T14:27:12.725Z,18.17
2022-11-29T14:29:51.096Z,17.10
2022-11-29T14:32:45.732Z,16.85
2022-11-29T14:35:13.070Z,18.00
2022-11-29T14:38:19.426Z,17.10
2022-11-29T14:41:16.028Z,17.35
2022-11-29T14:43:42.864Z,16.77
2022-11-29T14:46:15.794Z,18.10
2022-11-29T14:48:48.746Z,17.35
2022-11-29T14:51:19.628Z,18.02
2022-11-29T14:53:47.434Z,17.75
2022-11-29T14:56:34.866Z,17.00
2022-11-29T14:59:38.972Z,17.58
2022-11-29T15:02:27.549Z,18.30
2022-11-29T15:04:56.105Z,17.00
2022-11-29T15:07:29.862Z,18.02
2022-11-29T15:09:59.886Z,18.30
2022-11-29T15:12:29.502Z,17.23
2022-11-29T15:15:15.045Z,18.50
2022-11-29T15:17:44.559Z,17.40
2022-11-29T15:20:51.551Z,16.77
2022-11-29T15:23:18.916Z,16.70
2022-11-29T15:25:51.009Z,17.75
2022-11-29T15:28:37.982Z,16.70
2022-11-29T15:31:09.336Z,16.23
2022-11-29T15:33:43.066Z,16.85
2022-11-29T15:36:16.561Z,17.37
2022-11-29T15:38:53.669Z,16.40
2022-11-29T15:41:38.362Z,16.83
2022-11-29T15:44:06.461Z,17.85
2022-11-29T15:46:34.837Z,17.27
2022-11-29T15:49:23.993Z,16.50
2022-11-29T15:52:02.274Z,16.30
2022-11-29T15:54:30.415Z,16.58
2022-11-29T15:57:00.748Z,17.20
2022-11-29T15:59:40.135Z,17.23
2022-11-29T16:02:40.113Z,16.90
2022-11-29T16:05:22.917Z,15.52
2022-11-29T16:07:51.934Z,17.17
2022-11-29T16:10:20.929Z,15.57
2022-11-29T16:13:01.455Z,16.20
2022-11-29T16:15:29.539Z,15.93
2022-11-29T16:17:56.410Z,15.65
2022-11-29T16:20:24.528Z,15.88
2022-11-29T16:23:11.414Z,16.38
2022-11-29T16:25:54.048Z,15.60
2022-11-29T16:28:20.895Z,15.97
2022-11-29T16:30:47.678Z,17.05
2022-11-29T16:33:21.411Z,16.10
2022-11-29T16:35:48.368Z,15.80
2022-11-29T16:38:22.262Z,16.38
2022-11-29T16:41:08.317Z,15.43
2022-11-29T16:43:54.158Z,15.93
2022-11-29T16:46:20.980Z,15.55
2022-11-29T16:48:51.154Z,16.33
2022-11-29T16:51:35.924Z,16.52
2022-11-29T16:54:22.408Z,15.93
2022-11-29T16:56:50.484Z,14.73
2022-11-29T16:59:26.703Z,15.65
2022-11-29T17:01:55.127Z,15.20
2022-11-29T17:04:24.473Z,15.77
2022-11-29T17:06:55.207Z,15.37
2022-11-29T17:09:24.566Z,16.13
2022-11-29T17:11:51.543Z,15.60
2022-11-29T17:14:18.380Z,15.07
2022-11-29T17:16:47.779Z,16.40
2022-11-29T17:19:14.760Z,16.00
2022-11-29T17:21:41.552Z,15.38
2022-11-29T17:24:11.887Z,15.68
2022-11-29T17:26:38.728Z,16.65
2022-11-29T17:29:05.508Z,17.05
2022-11-29T17:31:32.604Z,15.33
2022-11-29T17:34:00.811Z,15.85
2022-11-29T17:36:27.729Z,14.85
2022-11-29T17:38:54.520Z,16.13
2022-11-29T17:41:23.234Z,15.18
2022-11-29T17:43:50.743Z,14.67
2022-11-29T17:46:26.074Z,15.65
2022-11-29T17:48:53.183Z,14.70
2022-11-29T17:51:50.767Z,16.85
2022-11-29T17:54:09.246Z,15.30
2022-11-29T17:56:36.044Z,16.73
2022-11-29T17:59:03.822Z,15.63
2022-11-29T18:01:32.383Z,15.23
2022-11-29T18:04:00.645Z,16.20
2022-11-29T18:06:34.192Z,16.77
2022-11-29T18:09:01.593Z,15.40
2022-11-29T18:11:44.946Z,16.85
2022-11-29T18:14:15.693Z,15.75
2022-11-29T18:16:42.837Z,15.27
2022-11-29T18:19:12.254Z,15.50
2022-11-29T18:21:39.240Z,15.83
2022-11-29T18:24:06.605Z,15.70
2022-11-29T18:26:34.188Z,15.88
2022-11-29T18:29:01.195Z,15.88
2022-11-29T18:31:33.154Z,17.02
2022-11-29T18:34:01.318Z,15.80
2022-11-29T18:36:32.642Z,16.05
2022-11-29T18:39:01.357Z,16.10
2022-11-29T18:41:29.262Z,15.10
2022-11-29T18:43:58.215Z,15.07
2022-11-29T18:46:25.686Z,14.87
2022-11-29T18:48:53.129Z,15.13
2022-11-29T18:51:20.244Z,16.35
2022-11-29T18:53:47.177Z,16.40
2022-11-29T18:56:19.181Z,16.75
2022-11-29T18:58:47.422Z,15.83
2022-11-29T19:01:15.895Z,16.10
2022-11-29T19:03:44.965Z,17.40
2022-11-29T19:06:17.056Z,16.65
2022-11-29T19:08:44.083Z,16.85
2022-11-29T19:11:15.173Z,17.27
2022-11-29T19:13:42.068Z,16.13
2022-11-29T19:16:13.043Z,16.45
2022-11-29T19:18:40.233Z,16.73
2022-11-29T19:21:07.764Z,15.40
2022-11-29T19:23:34.728Z,16.37
2022-11-29T19:26:03.321Z,16.90
2022-11-29T19:28:30.610Z,16.42
2022-11-29T19:30:57.620Z,16.33
2022-11-29T19:33:24.718Z,16.13
2022-11-29T19:35:51.661Z,16.30
2022-11-29T19:38:18.592Z,16.20
2022-11-29T19:40:45.554Z,16.05
2022-11-29T19:43:12.581Z,15.52
2022-11-29T19:45:40.512Z,16.58
2022-11-29T19:48:07.508Z,16.27
2022-11-29T19:50:34.364Z,15.27
2022-11-29T19:53:01.267Z,15.48
2022-11-29T19:55:28.175Z,15.05
2022-11-29T19:57:56.312Z,16.48
2022-11-29T20:00:23.245Z,15.87
2022-11-29T20:02:50.312Z,15.20
2022-11-29T20:05:17.362Z,16.55
2022-11-29T20:07:44.256Z,16.95
2022-11-29T20:10:11.693Z,16.55
2022-11-29T20:12:38.619Z,14.97
2022-11-29T20:15:06.228Z,15.43
2022-11-29T20:17:33.130Z,15.68
2022-11-29T20:20:00.057Z,15.77
2022-11-29T20:22:27.016Z,15.30
2022-11-29T20:24:55.021Z,14.77
2022-11-29T20:27:22.329Z,14.77
2022-11-29T20:29:49.299Z,15.15
2022-11-29T20:32:17.023Z,15.20
2022-11-29T20:34:44.239Z,15.05
2022-11-29T20:37:23.224Z,15.13
2022-11-29T20:40:11.101Z,14.32
2022-11-29T20:43:16.682Z,15.45
2022-11-29T20:45:43.900Z,14.60
2022-11-29T20:48:21.826Z,14.38
2022-11-29T20:51:00.441Z,14.63
2022-11-29T20:53:35.279Z,14.60
2022-11-29T20:56:02.738Z,14.43
2022-11-29T20:58:29.636Z,15.60
2022-11-29T21:00:56.937Z,15.52
2022-11-29T21:03:24.238Z,16.87
2022-11-29T21:05:51.709Z,15.30
2022-11-29T21:08:19.105Z,15.52
2022-11-29T21:10:45.991Z,15.95
2022-11-29T21:13:13.450Z,16.38
2022-11-29T21:15:40.759Z,16.40
2022-11-29T21:18:08.104Z,16.95
2022-11-29T21:20:35.170Z,16.90
2022-11-29T21:23:06.960Z,16.55
2022-11-29T21:25:57.537Z,16.30
2022-11-29T21:28:28.234Z,15.83
2022-11-29T21:30:55.351Z,16.35
2022-11-29T21:33:22.488Z,16.65
2022-11-29T21:35:52.615Z,16.63
2022-11-29T21:38:19.775Z,16.67
2022-11-29T21:40:46.732Z,16.67
2022-11-29T21:43:13.645Z,16.77
2022-11-29T21:45:40.570Z,16.27
2022-11-29T21:48:30.291Z,15.98
2022-11-29T21:50:57.173Z,16.42
2022-11-29T21:53:24.172Z,16.03
2022-11-29T21:55:57.045Z,15.68
2022-11-29T21:58:24.628Z,16.83
2022-11-29T22:00:51.917Z,16.10
2022-11-29T22:03:18.871Z,15.75
2022-11-29T22:05:46.956Z,15.43
2022-11-29T22:08:13.969Z,14.05
2022-11-29T22:10:40.896Z,16.67
2022-11-29T22:13:07.849Z,15.43
2022-11-29T22:15:34.762Z,14.65
2022-11-29T22:18:01.695Z,14.77
2022-11-29T22:20:28.593Z,15.30
2022-11-29T22:22:58.695Z,16.05
2022-11-29T22:25:25.877Z,15.13
2022-11-29T22:27:52.745Z,14.82
2022-11-29T22:30:19.710Z,15.27
2022-11-29T22:32:46.637Z,14.63
2022-11-29T22:35:13.569Z,13.93
2022-11-29T22:37:40.454Z,14.57
2022-11-29T22:40:07.774Z,15.35
2022-11-29T22:42:34.720Z,14.03
2022-11-29T22:45:03.926Z,14.00
2022-11-29T22:47:30.878Z,13.43
2022-11-29T22:49:57.809Z,14.65
2022-11-29T22:52:24.746Z,14.40
2022-11-29T22:54:51.644Z,13.77
2022-11-29T22:57:18.604Z,13.75
2022-11-29T22:59:45.452Z,14.05
2022-11-29T23:02:12.400Z,14.52
2022-11-29T23:04:39.307Z,14.57
2022-11-29T23:07:06.240Z,13.93
2022-11-29T23:09:33.124Z,13.95
2022-11-29T23:11:59.990Z,14.02
2022-11-29T23:14:26.851Z,13.75
2022-11-29T23:16:53.791Z,15.02
2022-11-29T23:19:20.769Z,14.40
2022-11-29T23:21:48.034Z,14.40
2022-11-29T23:24:15.398Z,13.40
2022-11-29T23:26:44.539Z,14.05
2022-11-29T23:29:13.588Z,13.77
2022-11-29T23:31:40.563Z,13.97
2022-11-29T23:34:07.790Z,13.13
2022-11-29T23:36:34.735Z,13.43
2022-11-29T23:39:01.591Z,13.70
2022-11-29T23:41:28.595Z,14.00
2022-11-29T23:43:55.491Z,13.33
2022-11-29T23:46:23.422Z,13.45
2022-11-29T23:48:50.470Z,13.85
2022-11-29T23:51:17.568Z,13.23
2022-11-29T23:53:44.528Z,13.43
2022-11-29T23:56:15.639Z,13.20
2022-11-29T23:58:42.912Z,12.90
